Time;durP1;ratioP1;P1;durP2;ratioP2;P2;SDS_P1;SDS_P2;PMS_P1;PMS_P2;Temp;Humidity;BMP_temperature;BMP_pressure;BME280_temperature;BME280_humidity;BME280_pressure;Samples;Min_cycle;Max_cycle;Signal;HPM_P1;HPM_P2
2022/10/31 00:03:35;;;;;;;23.63;13.90;;;7.60;99.90;;;;;;8350363;28;20031;-85
2022/10/31 00:07:36;;;;;;;25.63;15.18;;;7.70;99.90;;;;;;8340051;28;20025;-86
2022/10/31 00:11:36;;;;;;;27.55;15.40;;;7.80;99.90;;;;;;8343729;28;20025;-85
2022/10/31 00:15:39;;;;;;;28.15;15.13;;;7.90;99.90;;;;;;8340176;28;20021;-85
2022/10/31 00:19:39;;;;;;;28.42;16.30;;;8.00;99.90;;;;;;8347454;28;20021;-85
2022/10/31 00:23:40;;;;;;;34.50;16.88;;;7.80;99.90;;;;;;8344304;28;20064;-85
2022/10/31 00:27:41;;;;;;;36.33;16.77;;;7.70;99.90;;;;;;8344128;28;20036;-85
2022/10/31 00:31:41;;;;;;;34.35;17.33;;;7.70;99.90;;;;;;8337163;28;20029;-85
2022/10/31 00:35:42;;;;;;;31.15;14.55;;;7.80;99.90;;;;;;8347351;28;20497;-85
2022/10/31 00:39:44;;;;;;;25.52;14.55;;;7.60;99.90;;;;;;8338880;28;20029;-85
2022/10/31 00:43:45;;;;;;;31.60;15.38;;;7.40;99.90;;;;;;8342549;28;20020;-85
2022/10/31 00:47:46;;;;;;;37.05;16.25;;;7.30;99.90;;;;;;8356857;28;20049;-85
2022/10/31 00:51:46;;;;;;;34.33;16.42;;;7.20;99.90;;;;;;8353103;28;20105;-85
2022/10/31 00:55:47;;;;;;;36.67;16.23;;;7.20;99.90;;;;;;8351663;28;20032;-85
2022/10/31 00:59:48;;;;;;;31.15;15.27;;;7.20;99.90;;;;;;8349784;28;20063;-85
2022/10/31 01:03:48;;;;;;;40.08;17.35;;;7.00;99.90;;;;;;8355886;28;20539;-85
2022/10/31 01:07:49;;;;;;;37.05;16.38;;;7.00;99.90;;;;;;8354632;28;20056;-84
2022/10/31 01:11:49;;;;;;;37.65;16.02;;;7.00;99.90;;;;;;8361575;28;20064;-85
2022/10/31 01:15:57;;;;;;;34.42;16.80;;;6.90;99.90;;;;;;8349280;28;20439;-85
2022/10/31 01:19:58;;;;;;;33.42;16.60;;;6.80;99.90;;;;;;8345629;28;20022;-85
2022/10/31 01:23:59;;;;;;;34.97;17.23;;;7.00;99.90;;;;;;8347314;28;20645;-85
2022/10/31 01:28:00;;;;;;;38.90;17.83;;;7.10;99.90;;;;;;8362933;28;20032;-85
2022/10/31 01:32:00;;;;;;;42.22;17.70;;;7.10;99.90;;;;;;8340727;28;20540;-85
2022/10/31 01:36:12;;;;;;;34.63;17.20;;;7.00;99.90;;;;;;8332325;28;20095;-85
2022/10/31 01:40:12;;;;;;;41.78;17.70;;;6.90;99.90;;;;;;8348942;28;20051;-85
2022/10/31 01:44:13;;;;;;;41.42;17.92;;;6.80;99.90;;;;;;8356765;28;20554;-85
2022/10/31 01:48:18;;;;;;;43.33;18.90;;;6.90;99.90;;;;;;8348924;28;20033;-84
2022/10/31 01:52:37;;;;;;;44.90;18.70;;;6.90;99.90;;;;;;8351763;28;20024;-85
2022/10/31 01:56:46;;;;;;;40.72;18.02;;;6.90;99.90;;;;;;8347098;28;20029;-85
2022/10/31 02:00:51;;;;;;;40.67;18.45;;;7.10;99.90;;;;;;8347281;28;20021;-85
2022/10/31 02:05:01;;;;;;;62.63;22.02;;;7.10;99.90;;;;;;8348560;28;20082;-84
2022/10/31 02:09:04;;;;;;;47.45;21.00;;;7.00;99.90;;;;;;8348725;28;20025;-85
2022/10/31 02:13:07;;;;;;;45.90;19.52;;;7.20;99.90;;;;;;8340568;28;20100;-85
2022/10/31 02:17:08;;;;;;;44.28;19.45;;;7.10;99.90;;;;;;8343102;28;20025;-85
2022/10/31 02:21:21;;;;;;;41.60;18.75;;;7.10;99.90;;;;;;8352203;28;20021;-85
2022/10/31 02:25:39;;;;;;;51.42;19.85;;;7.00;99.90;;;;;;8336163;28;20025;-85
2022/10/31 02:29:49;;;;;;;44.28;19.73;;;7.00;99.90;;;;;;8342917;28;20013;-85
2022/10/31 02:33:58;;;;;;;43.38;18.75;;;7.00;99.90;;;;;;8342561;28;20017;-85
2022/10/31 02:38:09;;;;;;;41.20;18.98;;;6.90;99.90;;;;;;8350922;28;20025;-85
2022/10/31 02:42:15;;;;;;;31.35;16.65;;;6.90;99.90;;;;;;8342631;28;20104;-85
2022/10/31 02:46:27;;;;;;;36.75;17.98;;;6.80;99.90;;;;;;8338708;28;20032;-85
2022/10/31 02:50:36;;;;;;;38.05;18.00;;;6.80;99.90;;;;;;8357019;28;20111;-85
2022/10/31 02:54:37;;;;;;;35.50;17.23;;;6.70;99.90;;;;;;8343909;28;20025;-85
2022/10/31 02:58:43;;;;;;;32.83;16.10;;;6.80;99.90;;;;;;8351793;28;20525;-85
2022/10/31 03:02:52;;;;;;;40.42;18.60;;;6.80;99.90;;;;;;8345758;28;20059;-85
2022/10/31 03:07:27;;;;;;;43.20;19.67;;;6.80;99.90;;;;;;8374594;28;20025;-85
2022/10/31 03:12:02;;;;;;;45.97;20.83;;;6.70;99.90;;;;;;8360767;28;20137;-86
2022/10/31 03:16:13;;;;;;;49.13;20.77;;;6.70;99.90;;;;;;8331900;28;20481;-85
2022/10/31 03:20:20;;;;;;;50.85;21.73;;;6.70;99.90;;;;;;8341567;28;20408;-86
2022/10/31 03:24:24;;;;;;;56.88;22.40;;;6.70;99.90;;;;;;8343230;28;20025;-85
2022/10/31 03:28:29;;;;;;;55.75;21.98;;;6.60;99.90;;;;;;8341172;28;20056;-85
2022/10/31 03:32:41;;;;;;;57.05;23.58;;;6.60;99.90;;;;;;8336787;28;20108;-85
2022/10/31 03:36:44;;;;;;;71.07;24.02;;;6.60;99.90;;;;;;8345144;28;20039;-84
2022/10/31 03:40:47;;;;;;;54.97;22.85;;;6.70;99.90;;;;;;8340977;28;20451;-85
2022/10/31 03:45:01;;;;;;;66.72;23.05;;;6.50;99.90;;;;;;8353936;28;20017;-84
2022/10/31 03:49:03;;;;;;;49.30;22.30;;;6.50;99.90;;;;;;8352581;28;20028;-84
2022/10/31 03:53:14;;;;;;;54.72;24.20;;;6.50;99.90;;;;;;8354808;28;20029;-84
2022/10/31 03:57:28;;;;;;;50.17;22.48;;;6.50;99.90;;;;;;8340346;28;20064;-84
2022/10/31 04:01:32;;;;;;;46.88;21.60;;;6.40;99.90;;;;;;8354980;28;20459;-84
2022/10/31 04:05:34;;;;;;;35.53;17.40;;;6.10;99.90;;;;;;8345213;28;20030;-84
2022/10/31 04:09:38;;;;;;;39.33;16.95;;;6.50;99.90;;;;;;8347346;28;20013;-84
2022/10/31 04:13:41;;;;;;;34.05;16.00;;;6.50;99.90;;;;;;8336456;28;20029;-84
2022/10/31 04:17:44;;;;;;;33.60;15.65;;;6.20;99.90;;;;;;8345061;28;20037;-84
2022/10/31 04:21:44;;;;;;;41.05;16.90;;;6.10;99.90;;;;;;8340027;28;20027;-84
2022/10/31 04:25:45;;;;;;;36.65;14.60;;;6.00;99.90;;;;;;8339695;28;20428;-84
2022/10/31 04:29:45;;;;;;;39.20;16.50;;;5.80;99.90;;;;;;8339155;28;20025;-84
2022/10/31 04:33:46;;;;;;;30.70;15.05;;;5.70;99.90;;;;;;8341672;28;20029;-85
2022/10/31 04:37:46;;;;;;;31.20;14.57;;;5.70;99.90;;;;;;8328173;28;20053;-84
2022/10/31 04:41:47;;;;;;;33.83;16.02;;;5.70;99.90;;;;;;8339342;28;20017;-84
2022/10/31 04:45:47;;;;;;;38.63;16.08;;;5.60;99.90;;;;;;8333573;28;20025;-84
2022/10/31 04:49:48;;;;;;;39.38;18.50;;;5.50;99.90;;;;;;8340769;28;20028;-84
2022/10/31 04:53:48;;;;;;;46.60;18.10;;;5.50;99.90;;;;;;8335507;28;20036;-84
2022/10/31 04:57:50;;;;;;;38.50;17.38;;;5.50;99.90;;;;;;8343638;28;20392;-84
2022/10/31 05:01:51;;;;;;;40.45;19.25;;;5.50;99.90;;;;;;8357587;28;20035;-85
2022/10/31 05:05:51;;;;;;;40.85;18.23;;;5.40;99.90;;;;;;8356600;28;20021;-84
2022/10/31 05:09:52;;;;;;;45.25;19.90;;;5.50;99.90;;;;;;8324819;28;20566;-84
2022/10/31 05:13:52;;;;;;;42.80;18.25;;;5.40;99.90;;;;;;8321343;28;20060;-85
2022/10/31 05:17:53;;;;;;;41.15;18.67;;;5.40;99.90;;;;;;8351198;28;20447;-84
2022/10/31 05:21:54;;;;;;;45.28;19.30;;;5.40;99.90;;;;;;8340057;28;20025;-84
2022/10/31 05:25:54;;;;;;;47.55;19.42;;;5.40;99.90;;;;;;8342031;28;20029;-84
2022/10/31 05:29:55;;;;;;;50.35;20.13;;;5.40;99.90;;;;;;8339767;28;20100;-84
2022/10/31 05:33:55;;;;;;;49.30;19.38;;;5.30;99.90;;;;;;8344658;28;20032;-84
2022/10/31 05:37:57;;;;;;;51.78;21.55;;;5.30;99.90;;;;;;8347077;28;20070;-84
2022/10/31 05:41:58;;;;;;;56.05;22.27;;;5.40;99.90;;;;;;8339183;28;20029;-84
2022/10/31 05:45:58;;;;;;;52.15;20.38;;;5.50;99.90;;;;;;8352067;28;20047;-84
2022/10/31 05:49:59;;;;;;;55.80;22.13;;;5.50;99.90;;;;;;8354660;28;20021;-84
2022/10/31 05:53:59;;;;;;;51.20;21.88;;;5.40;99.90;;;;;;8352448;28;20072;-84
2022/10/31 05:58:00;;;;;;;60.42;21.83;;;5.30;99.90;;;;;;8347760;28;20054;-84
2022/10/31 06:02:00;;;;;;;66.28;23.42;;;5.30;99.90;;;;;;8358355;28;20515;-84
2022/10/31 06:06:01;;;;;;;56.75;22.10;;;5.40;99.90;;;;;;8356270;28;20632;-84
2022/10/31 06:10:04;;;;;;;49.05;21.73;;;5.40;99.90;;;;;;8356692;28;20455;-84
2022/10/31 06:14:05;;;;;;;56.22;23.25;;;5.30;99.90;;;;;;8336429;28;20473;-84
2022/10/31 06:18:06;;;;;;;53.92;22.98;;;5.30;99.90;;;;;;8320570;28;20107;-84
2022/10/31 06:22:07;;;;;;;62.67;23.55;;;5.40;99.90;;;;;;8339599;28;20052;-85
2022/10/31 06:26:07;;;;;;;52.38;21.30;;;5.40;99.90;;;;;;8338200;28;20025;-85
2022/10/31 06:30:08;;;;;;;59.85;24.08;;;5.40;99.90;;;;;;8336987;28;20026;-85
2022/10/31 06:34:09;;;;;;;76.28;27.42;;;5.50;99.90;;;;;;8328937;28;20629;-85
2022/10/31 06:38:09;;;;;;;85.32;29.83;;;5.70;99.90;;;;;;8345960;28;20013;-85
2022/10/31 06:42:10;;;;;;;86.78;31.92;;;6.10;99.90;;;;;;8353662;28;20032;-85
2022/10/31 06:46:10;;;;;;;88.65;30.98;;;6.20;99.90;;;;;;8353312;28;20500;-84
2022/10/31 06:50:11;;;;;;;62.53;24.30;;;6.30;99.90;;;;;;8356811;28;20021;-85
2022/10/31 06:54:11;;;;;;;64.07;26.08;;;6.70;99.90;;;;;;8342973;28;20017;-84
2022/10/31 06:58:12;;;;;;;66.60;27.30;;;6.90;99.90;;;;;;8330592;28;20040;-85
2022/10/31 07:02:13;;;;;;;65.70;29.08;;;7.10;99.90;;;;;;8341753;28;20048;-85
2022/10/31 07:06:13;;;;;;;60.33;27.85;;;7.40;99.90;;;;;;8345215;28;20033;-85
2022/10/31 07:10:14;;;;;;;63.97;31.23;;;7.60;99.90;;;;;;8341245;28;20106;-84
2022/10/31 07:14:14;;;;;;;47.72;28.00;;;7.90;99.90;;;;;;8338217;28;20076;-85
2022/10/31 07:18:15;;;;;;;47.88;24.48;;;8.20;99.90;;;;;;8345270;28;20025;-85
2022/10/31 07:22:15;;;;;;;51.35;25.85;;;8.20;99.90;;;;;;8341953;28;20049;-85
2022/10/31 07:26:19;;;;;;;42.53;21.77;;;8.30;99.90;;;;;;8328224;28;20045;-85
2022/10/31 07:30:22;;;;;;;38.63;20.77;;;8.50;99.90;;;;;;8333143;28;20071;-85
2022/10/31 07:34:23;;;;;;;33.90;18.05;;;8.60;99.90;;;;;;8340736;28;20126;-85
2022/10/31 07:38:23;;;;;;;40.58;20.50;;;8.80;99.90;;;;;;8345719;28;20025;-85
2022/10/31 07:42:24;;;;;;;31.88;20.30;;;9.00;99.90;;;;;;8337695;28;20401;-86
2022/10/31 07:46:24;;;;;;;32.13;18.58;;;9.10;99.90;;;;;;8332265;28;20013;-86
2022/10/31 07:50:28;;;;;;;26.50;17.02;;;9.20;99.90;;;;;;8348834;28;20017;-86
2022/10/31 07:54:29;;;;;;;25.58;15.88;;;9.60;99.90;;;;;;8347416;28;20040;-86
2022/10/31 07:58:29;;;;;;;26.33;15.13;;;9.80;99.90;;;;;;8348389;28;20112;-86
2022/10/31 08:02:30;;;;;;;24.92;15.80;;;9.90;99.90;;;;;;8346137;28;20059;-86
2022/10/31 08:06:30;;;;;;;19.25;13.02;;;10.10;99.90;;;;;;8341545;28;20029;-86
2022/10/31 08:10:37;;;;;;;24.55;13.98;;;10.30;99.90;;;;;;8340487;28;20507;-86
2022/10/31 08:14:38;;;;;;;22.42;13.05;;;10.80;99.90;;;;;;8340641;28;20029;-86
2022/10/31 08:18:39;;;;;;;21.13;14.10;;;10.70;99.90;;;;;;8342940;28;20047;-86
2022/10/31 08:22:39;;;;;;;21.80;13.20;;;11.00;99.90;;;;;;8330797;28;20587;-86
2022/10/31 08:26:40;;;;;;;19.73;13.07;;;11.30;99.90;;;;;;8343141;28;20028;-86
2022/10/31 08:30:41;;;;;;;19.73;12.52;;;11.40;99.90;;;;;;8328848;28;20029;-86
2022/10/31 08:34:42;;;;;;;26.38;13.35;;;11.50;99.90;;;;;;8344463;28;20047;-86
2022/10/31 08:38:42;;;;;;;18.83;12.25;;;11.80;99.90;;;;;;8317290;28;20048;-86
2022/10/31 08:42:43;;;;;;;21.77;12.30;;;11.80;99.90;;;;;;8340224;28;20029;-86
2022/10/31 08:47:18;;;;;;;20.52;12.77;;;11.70;99.90;;;;;;8343018;28;20026;-86
2022/10/31 08:51:22;;;;;;;19.67;12.70;;;12.00;99.90;;;;;;8351327;28;20461;-86
2022/10/31 08:55:25;;;;;;;18.38;11.48;;;12.20;99.90;;;;;;8322012;28;20033;-86
2022/10/31 08:59:26;;;;;;;13.75;10.07;;;12.60;99.90;;;;;;8320927;28;20401;-87
2022/10/31 09:03:29;;;;;;;15.13;11.10;;;13.20;99.90;;;;;;8330186;28;20132;-87
2022/10/31 09:07:29;;;;;;;18.33;11.55;;;12.90;99.90;;;;;;8348038;28;20500;-86
2022/10/31 09:11:30;;;;;;;15.38;10.20;;;13.00;99.90;;;;;;8337049;28;20017;-86
2022/10/31 09:15:32;;;;;;;18.63;10.35;;;13.40;99.90;;;;;;8345371;28;20026;-86
2022/10/31 09:19:32;;;;;;;14.15;9.85;;;13.50;99.90;;;;;;8329479;28;20065;-86
2022/10/31 09:23:33;;;;;;;20.77;9.90;;;14.00;99.90;;;;;;8327691;28;20029;-87
2022/10/31 09:27:33;;;;;;;14.75;10.20;;;14.10;99.90;;;;;;8335018;28;20402;-86
2022/10/31 09:31:34;;;;;;;17.33;10.02;;;14.30;99.90;;;;;;8347105;28;20021;-87
2022/10/31 09:35:34;;;;;;;19.02;10.27;;;14.50;99.90;;;;;;8328992;28;20036;-86
2022/10/31 09:39:35;;;;;;;17.05;10.45;;;15.20;99.90;;;;;;8343376;28;20017;-87
2022/10/31 09:44:03;;;;;;;16.65;10.20;;;15.60;99.90;;;;;;8332186;28;20025;-87
2022/10/31 09:48:29;;;;;;;18.05;9.63;;;16.00;99.90;;;;;;8341727;28;20025;-87
2022/10/31 09:52:36;;;;;;;15.85;9.80;;;16.60;99.90;;;;;;8344407;28;20045;-87
2022/10/31 09:56:37;;;;;;;16.70;10.95;;;16.90;99.90;;;;;;8347417;28;20047;-87
2022/10/31 10:00:38;;;;;;;18.52;11.30;;;16.50;99.90;;;;;;8329231;28;20029;-86
2022/10/31 10:04:53;;;;;;;16.20;11.25;;;16.40;99.90;;;;;;8334989;28;20448;-87
2022/10/31 10:08:55;;;;;;;20.40;12.32;;;16.30;99.90;;;;;;8348495;28;20449;-87
2022/10/31 10:13:31;;;;;;;20.90;11.77;;;16.40;99.90;;;;;;8353710;28;20026;-88
2022/10/31 10:17:54;;;;;;;18.52;10.50;;;16.20;99.90;;;;;;8326975;28;20060;-88
2022/10/31 10:22:23;;;;;;;16.20;10.90;;;16.20;99.90;;;;;;8319183;28;20037;-87
2022/10/31 10:26:55;;;;;;;12.80;10.20;;;16.30;99.90;;;;;;8322311;28;20543;-86
2022/10/31 10:31:32;;;;;;;18.58;10.90;;;17.10;99.90;;;;;;8325969;28;20068;-87
2022/10/31 10:35:36;;;;;;;17.60;10.30;;;17.40;99.90;;;;;;8348420;28;20044;-86
2022/10/31 10:39:41;;;;;;;17.90;9.70;;;17.60;99.90;;;;;;8353373;28;20473;-87
2022/10/31 10:43:41;;;;;;;11.88;7.85;;;18.20;99.90;;;;;;8346646;28;20017;-88
2022/10/31 10:48:02;;;;;;;14.80;8.52;;;18.40;99.90;;;;;;8336629;28;20408;-85
2022/10/31 10:52:19;;;;;;;13.25;7.05;;;18.70;99.90;;;;;;8345708;28;20057;-87
2022/10/31 10:56:37;;;;;;;11.98;6.60;;;19.30;99.90;;;;;;8340129;28;20679;-87
2022/10/31 11:00:46;;;;;;;11.65;4.93;;;20.10;99.90;;;;;;8336828;28;20026;-87
2022/10/31 11:04:54;;;;;;;11.50;6.43;;;21.00;99.90;;;;;;8347135;28;20021;-87
2022/10/31 11:08:54;;;;;;;13.02;6.35;;;20.70;99.90;;;;;;8342571;28;20037;-87
2022/10/31 11:13:13;;;;;;;16.35;6.10;;;20.30;99.90;;;;;;8325576;28;20021;-87
2022/10/31 11:17:25;;;;;;;15.23;5.55;;;20.90;99.90;;;;;;8341345;28;20128;-87
2022/10/31 11:21:29;;;;;;;11.73;6.38;;;22.10;99.90;;;;;;8333271;28;20061;-91
2022/10/31 11:25:30;;;;;;;10.52;6.20;;;22.50;99.90;;;;;;8350847;28;20546;-91
2022/10/31 11:29:30;;;;;;;9.70;5.28;;;23.10;99.90;;;;;;8338354;28;20067;-91
2022/10/31 11:33:38;;;;;;;9.02;4.88;;;23.70;99.90;;;;;;8324584;28;20367;-91
2022/10/31 11:37:43;;;;;;;13.63;5.30;;;24.20;99.90;;;;;;8327911;28;20099;-91
2022/10/31 11:41:44;;;;;;;11.07;4.97;;;25.10;99.90;;;;;;8332848;28;20029;-91
2022/10/31 11:45:45;;;;;;;11.77;5.45;;;25.90;99.90;;;;;;8335004;28;20028;-90
2022/10/31 11:49:50;;;;;;;11.27;5.13;;;25.80;99.90;;;;;;8334588;28;20024;-90
2022/10/31 11:53:54;;;;;;;10.85;5.03;;;25.40;99.90;;;;;;8344478;28;20056;-91
2022/10/31 11:57:55;;;;;;;10.63;4.75;;;26.00;99.90;;;;;;8323800;28;20135;-91
2022/10/31 12:01:59;;;;;;;9.85;5.07;;;26.60;99.90;;;;;;8339304;28;20415;-91
2022/10/31 12:06:07;;;;;;;9.60;4.82;;;25.70;99.90;;;;;;8342820;28;20100;-90
2022/10/31 12:10:12;;;;;;;15.48;5.53;;;24.50;99.90;;;;;;8336165;28;20047;-91
2022/10/31 12:14:25;;;;;;;11.98;5.38;;;24.30;99.90;;;;;;8323891;28;20505;-90
2022/10/31 12:19:07;;;;;;;17.30;5.60;;;24.10;99.90;;;;;;8335698;28;20025;-91
2022/10/31 12:23:32;;;;;;;14.18;5.68;;;23.00;99.90;;;;;;8315612;28;20026;-91
2022/10/31 12:28:11;;;;;;;11.18;5.40;;;21.60;99.90;;;;;;8341428;28;20148;-90
2022/10/31 12:32:36;;;;;;;12.80;6.00;;;21.10;99.90;;;;;;8329684;28;20049;-91
2022/10/31 12:36:59;;;;;;;13.05;5.93;;;20.80;99.90;;;;;;8334035;28;20028;-91
2022/10/31 12:41:27;;;;;;;11.40;5.85;;;20.50;99.90;;;;;;8337734;28;20033;-91
2022/10/31 12:45:44;;;;;;;13.18;6.65;;;20.50;99.90;;;;;;8337963;28;20025;-91
2022/10/31 12:50:10;;;;;;;10.88;6.22;;;20.70;99.90;;;;;;8358081;28;20115;-91
2022/10/31 12:54:31;;;;;;;12.93;5.95;;;20.20;99.90;;;;;;8343565;28;20021;-92
2022/10/31 12:58:37;;;;;;;11.35;7.00;;;20.00;99.90;;;;;;8346594;28;20033;-89
2022/10/31 13:02:44;;;;;;;11.15;8.23;;;19.90;99.90;;;;;;8347498;28;20018;-89
2022/10/31 13:06:59;;;;;;;14.45;8.85;;;19.70;99.90;;;;;;8348817;28;20033;-90
2022/10/31 13:11:15;;;;;;;15.75;10.23;;;19.20;99.90;;;;;;8341526;28;20029;-90
2022/10/31 13:15:24;;;;;;;14.10;9.98;;;18.90;99.90;;;;;;8332277;28;20374;-89
2022/10/31 13:19:27;;;;;;;15.38;10.18;;;18.80;99.90;;;;;;8339333;28;20055;-90
2022/10/31 13:23:37;;;;;;;14.20;9.15;;;18.60;99.90;;;;;;8342460;28;20033;-90
2022/10/31 13:28:23;;;;;;;13.77;9.20;;;18.40;99.90;;;;;;8345687;28;20033;-90
2022/10/31 13:32:29;;;;;;;15.70;8.63;;;18.60;99.90;;;;;;8341829;28;20025;-90
2022/10/31 13:36:45;;;;;;;17.05;9.38;;;18.90;99.90;;;;;;8335597;28;20029;-90
2022/10/31 13:40:54;;;;;;;16.02;8.43;;;19.50;99.90;;;;;;8335860;28;20374;-90
2022/10/31 13:44:55;;;;;;;14.35;7.68;;;20.10;99.90;;;;;;8348207;28;20072;-90
2022/10/31 13:48:55;;;;;;;10.80;7.43;;;20.20;99.90;;;;;;8343123;28;20062;-90
2022/10/31 13:53:21;;;;;;;15.27;6.72;;;20.40;99.90;;;;;;8345050;28;20480;-89
2022/10/31 13:57:42;;;;;;;16.27;6.55;;;20.50;99.90;;;;;;8347256;28;20116;-90
2022/10/31 14:01:55;;;;;;;13.98;6.20;;;20.80;99.90;;;;;;8345154;28;20025;-90
2022/10/31 14:05:57;;;;;;;11.32;6.05;;;20.80;99.90;;;;;;8351251;28;20481;-90
2022/10/31 14:10:05;;;;;;;11.50;6.18;;;20.50;99.90;;;;;;8338905;28;20018;-90
2022/10/31 14:14:11;;;;;;;9.98;5.72;;;20.30;99.90;;;;;;8335763;28;20056;-91
2022/10/31 14:18:24;;;;;;;13.10;6.50;;;20.00;99.90;;;;;;8342124;28;20055;-90
2022/10/31 14:22:30;;;;;;;14.57;5.97;;;19.70;99.90;;;;;;8341125;28;20044;-90
2022/10/31 14:26:34;;;;;;;14.50;5.90;;;19.40;99.90;;;;;;8334379;28;20060;-90
2022/10/31 14:30:36;;;;;;;9.10;5.03;;;19.30;99.90;;;;;;8343634;28;20049;-90
2022/10/31 14:34:40;;;;;;;13.73;5.55;;;19.40;99.90;;;;;;8345857;28;20029;-90
2022/10/31 14:38:57;;;;;;;16.58;5.97;;;19.40;99.90;;;;;;8337924;28;20021;-90
2022/10/31 14:43:34;;;;;;;12.00;5.90;;;19.70;99.90;;;;;;8342292;28;20017;-90
2022/10/31 14:48:06;;;;;;;11.98;5.93;;;19.80;99.90;;;;;;8332082;28;20393;-91
2022/10/31 14:52:08;;;;;;;9.93;5.57;;;19.80;99.90;;;;;;8323470;28;20021;-91
2022/10/31 14:56:11;;;;;;;13.77;6.38;;;19.40;99.90;;;;;;8338693;28;20546;-92
2022/10/31 15:00:19;;;;;;;16.20;5.88;;;18.70;99.90;;;;;;8398998;28;20042;-89
2022/10/31 15:04:28;;;;;;;11.43;5.65;;;18.00;99.90;;;;;;8355802;28;20040;-92
2022/10/31 15:08:35;;;;;;;14.80;6.40;;;17.40;99.90;;;;;;8353038;28;20600;-91
2022/10/31 15:12:38;;;;;;;17.08;5.82;;;16.90;99.90;;;;;;8332960;28;20108;-91
2022/10/31 15:16:42;;;;;;;26.30;7.00;;;16.50;99.90;;;;;;8324075;28;20029;-91
2022/10/31 15:20:45;;;;;;;22.42;7.07;;;16.20;99.90;;;;;;8336866;28;20028;-92
2022/10/31 15:24:46;;;;;;;16.52;6.20;;;16.00;99.90;;;;;;8344799;28;20029;-92
2022/10/31 15:30:02;;;;;;;13.40;6.68;;;15.70;99.90;;;;;;8344124;28;20488;-91
2022/10/31 15:34:19;;;;;;;24.75;9.13;;;15.20;99.90;;;;;;8333232;28;20025;-91
2022/10/31 15:38:19;;;;;;;24.73;8.05;;;15.10;99.90;;;;;;8341474;28;20497;-91
2022/10/31 15:42:59;;;;;;;23.83;8.48;;;15.00;99.90;;;;;;8344783;28;20027;-91
2022/10/31 15:47:20;;;;;;;22.58;7.93;;;14.80;99.90;;;;;;8337646;28;20028;-91
2022/10/31 15:51:33;;;;;;;19.15;8.90;;;14.60;99.90;;;;;;8344752;28;20392;-91
2022/10/31 15:55:50;;;;;;;17.45;8.40;;;14.50;99.90;;;;;;8340276;28;20071;-91
2022/10/31 16:00:00;;;;;;;12.52;7.53;;;14.10;99.90;;;;;;8341746;28;20040;-91
2022/10/31 16:04:12;;;;;;;22.13;7.50;;;13.80;99.90;;;;;;8331357;28;20068;-92
2022/10/31 16:08:35;;;;;;;20.52;9.15;;;13.60;99.90;;;;;;8334632;28;20026;-92
2022/10/31 16:12:42;;;;;;;17.13;9.15;;;13.30;99.90;;;;;;8331387;28;20017;-91
2022/10/31 16:16:51;;;;;;;23.40;9.50;;;13.10;99.90;;;;;;8343345;28;20025;-91
2022/10/31 16:21:04;;;;;;;20.90;9.02;;;13.00;99.90;;;;;;8332839;28;20116;-91
2022/10/31 16:25:37;;;;;;;16.30;8.98;;;12.90;99.90;;;;;;8340522;28;20450;-91
2022/10/31 16:29:43;;;;;;;19.42;9.55;;;12.60;99.90;;;;;;8314415;28;20033;-91
2022/10/31 16:33:43;;;;;;;30.83;15.18;;;12.40;99.90;;;;;;8326305;28;20018;-91
2022/10/31 16:37:44;;;;;;;32.70;13.15;;;12.40;99.90;;;;;;8335938;28;20497;-91
2022/10/31 16:41:50;;;;;;;17.63;9.63;;;12.20;99.90;;;;;;8322093;28;20021;-91
2022/10/31 16:45:52;;;;;;;16.67;8.45;;;12.40;99.90;;;;;;8345422;28;20436;-91
2022/10/31 16:49:52;;;;;;;16.90;7.88;;;12.20;99.90;;;;;;8338280;28;20013;-92
2022/10/31 16:53:53;;;;;;;21.25;8.88;;;11.80;99.90;;;;;;8331007;28;20036;-92
2022/10/31 16:57:55;;;;;;;22.95;10.82;;;11.60;99.90;;;;;;8335186;28;20032;-91
2022/10/31 17:02:21;;;;;;;17.40;11.73;;;11.50;99.90;;;;;;8347332;28;20021;-91
2022/10/31 17:06:22;;;;;;;19.98;9.00;;;11.50;99.90;;;;;;8332897;28;20045;-91
2022/10/31 17:10:23;;;;;;;17.90;10.27;;;11.40;99.90;;;;;;8345618;28;20033;-91
2022/10/31 17:14:24;;;;;;;23.92;14.10;;;11.20;99.90;;;;;;8326186;28;20504;-91
2022/10/31 17:18:25;;;;;;;38.03;14.80;;;11.00;99.90;;;;;;8337688;28;20026;-92
2022/10/31 17:22:26;;;;;;;29.55;16.48;;;10.90;99.90;;;;;;8334529;28;20404;-91
2022/10/31 17:26:27;;;;;;;24.33;13.73;;;11.10;99.90;;;;;;8342964;28;20108;-91
2022/10/31 17:30:28;;;;;;;20.40;11.05;;;11.40;99.90;;;;;;8349062;28;20021;-91
2022/10/31 17:34:29;;;;;;;27.10;9.88;;;11.30;99.90;;;;;;8344316;28;20018;-91
2022/10/31 17:38:29;;;;;;;17.40;8.77;;;10.90;99.90;;;;;;8332676;28;20477;-91
2022/10/31 17:42:30;;;;;;;17.30;10.80;;;10.60;99.90;;;;;;8331598;28;20048;-92
2022/10/31 17:46:30;;;;;;;20.60;11.73;;;10.50;99.90;;;;;;8345830;28;20028;-91
2022/10/31 17:50:31;;;;;;;22.55;11.02;;;10.30;99.90;;;;;;8364496;28;20017;-92
2022/10/31 17:54:32;;;;;;;24.05;13.88;;;10.10;99.90;;;;;;8325119;28;20022;-92
2022/10/31 17:58:34;;;;;;;30.50;15.63;;;9.90;99.90;;;;;;8330895;28;20462;-92
2022/10/31 18:02:35;;;;;;;31.42;15.40;;;10.00;99.90;;;;;;8328876;28;20029;-92
2022/10/31 18:06:36;;;;;;;29.00;15.23;;;10.00;99.90;;;;;;8328613;28;20052;-92
2022/10/31 18:10:38;;;;;;;34.22;16.35;;;9.90;99.90;;;;;;8348448;28;20500;-92
2022/10/31 18:14:38;;;;;;;34.45;18.50;;;9.90;99.90;;;;;;8327610;28;20017;-92
2022/10/31 18:18:39;;;;;;;35.70;18.05;;;10.00;99.90;;;;;;8352917;28;20099;-91
2022/10/31 18:22:40;;;;;;;37.83;19.00;;;10.20;99.90;;;;;;8335442;28;20150;-91
2022/10/31 18:26:41;;;;;;;25.33;12.60;;;10.10;99.90;;;;;;8336736;28;20033;-91
2022/10/31 18:30:41;;;;;;;24.48;12.18;;;10.10;99.90;;;;;;8350088;28;20480;-91
2022/10/31 18:34:42;;;;;;;25.58;14.88;;;9.80;99.90;;;;;;8333463;28;20113;-91
2022/10/31 18:38:45;;;;;;;36.67;16.20;;;9.80;99.90;;;;;;8338500;28;20025;-92
2022/10/31 18:42:46;;;;;;;30.45;15.40;;;9.70;99.90;;;;;;8358302;28;20025;-90
2022/10/31 18:46:47;;;;;;;40.97;18.63;;;9.80;99.90;;;;;;8348653;28;20591;-91
2022/10/31 18:50:47;;;;;;;40.05;17.92;;;9.70;99.90;;;;;;8326634;28;20049;-91
2022/10/31 18:54:48;;;;;;;33.10;16.23;;;9.70;99.90;;;;;;8338669;28;20025;-91
2022/10/31 18:58:49;;;;;;;39.50;16.80;;;9.70;99.90;;;;;;8330522;28;20438;-91
2022/10/31 19:02:50;;;;;;;38.85;18.02;;;9.60;99.90;;;;;;8335452;28;20085;-92
2022/10/31 19:06:50;;;;;;;33.35;17.83;;;9.70;99.90;;;;;;8337501;28;20025;-90
2022/10/31 19:10:51;;;;;;;35.22;18.85;;;9.40;99.90;;;;;;8332300;28;20489;-91
2022/10/31 19:14:52;;;;;;;40.75;22.45;;;9.20;99.90;;;;;;8329835;28;20021;-91
2022/10/31 19:18:58;;;;;;;52.83;21.63;;;9.20;99.90;;;;;;8343830;28;20112;-91
2022/10/31 19:22:59;;;;;;;36.08;20.08;;;9.10;99.90;;;;;;8342005;28;20493;-91
2022/10/31 19:27:10;;;;;;;41.55;22.67;;;8.80;99.90;;;;;;8349039;28;20050;-90
2022/10/31 19:31:11;;;;;;;36.05;21.13;;;9.00;99.90;;;;;;8342118;28;20136;-91
2022/10/31 19:35:17;;;;;;;30.33;19.63;;;9.00;99.90;;;;;;8345411;28;20481;-90
2022/10/31 19:39:21;;;;;;;31.58;19.63;;;9.20;99.90;;;;;;8339050;28;20026;-91
2022/10/31 19:43:22;;;;;;;29.63;17.85;;;9.10;99.90;;;;;;8338666;28;20063;-91
2022/10/31 19:47:25;;;;;;;36.25;17.98;;;8.80;99.90;;;;;;8354900;28;20489;-91
2022/10/31 19:51:29;;;;;;;33.28;18.23;;;8.50;99.90;;;;;;8343037;28;20124;-91
2022/10/31 19:55:32;;;;;;;30.65;19.02;;;8.40;99.90;;;;;;8346852;28;20044;-91
2022/10/31 19:59:41;;;;;;;42.30;19.55;;;8.40;99.90;;;;;;8334647;28;20056;-90
2022/10/31 20:03:46;;;;;;;33.73;19.77;;;8.40;99.90;;;;;;8365374;28;20033;-91
2022/10/31 20:07:57;;;;;;;40.05;22.17;;;8.60;99.90;;;;;;8354886;28;20032;-90
2022/10/31 20:12:03;;;;;;;36.60;20.75;;;8.60;99.90;;;;;;8348835;28;20028;-91
2022/10/31 20:16:10;;;;;;;32.13;18.75;;;8.60;99.90;;;;;;8347248;28;20056;-90
2022/10/31 20:20:11;;;;;;;28.65;15.23;;;8.70;99.90;;;;;;8344124;28;20026;-90
2022/10/31 20:24:15;;;;;;;21.17;14.88;;;8.90;99.90;;;;;;8348677;28;20063;-91
2022/10/31 20:28:19;;;;;;;24.50;14.38;;;8.80;99.90;;;;;;8332684;28;20021;-91
2022/10/31 20:32:23;;;;;;;23.42;14.15;;;8.70;99.90;;;;;;8340265;28;20049;-90
2022/10/31 20:36:24;;;;;;;27.60;15.18;;;8.60;99.90;;;;;;8338052;28;20481;-91
2022/10/31 20:40:38;;;;;;;33.17;16.10;;;8.40;99.90;;;;;;8357296;28;20025;-91
2022/10/31 20:44:48;;;;;;;32.88;16.20;;;8.30;99.90;;;;;;8344985;28;20017;-91
2022/10/31 20:48:49;;;;;;;29.90;15.52;;;8.10;99.90;;;;;;8340908;28;20092;-87
2022/10/31 20:52:50;;;;;;;36.10;16.10;;;8.10;99.90;;;;;;8348277;28;20021;-87
2022/10/31 20:56:53;;;;;;;33.10;16.55;;;8.10;99.90;;;;;;8347075;28;20389;-86
2022/10/31 21:00:54;;;;;;;43.08;18.13;;;8.10;99.90;;;;;;8344062;28;20026;-86
2022/10/31 21:04:55;;;;;;;32.47;17.08;;;8.20;99.90;;;;;;8352099;28;20132;-87